sensor_id;sensor_type;location;lat;lon;timestamp;P1;durP1;ratioP1;P2;durP2;ratioP2
9256;SDS011;4665;51.368;6.782;2023-04-24T00:00:11;1.20;;;1.00;;
9256;SDS011;4665;51.368;6.782;2023-04-24T00:02:39;0.90;;;0.90;;
9256;SDS011;4665;51.368;6.782;2023-04-24T00:05:06;4.03;;;1.10;;
9256;SDS011;4665;51.368;6.782;2023-04-24T00:07:32;0.93;;;0.93;;
9256;SDS011;4665;51.368;6.782;2023-04-24T00:09:58;0.80;;;0.80;;
9256;SDS011;4665;51.368;6.782;2023-04-24T00:12:24;0.90;;;0.90;;
9256;SDS011;4665;51.368;6.782;2023-04-24T00:14:50;4.83;;;1.20;;
9256;SDS011;4665;51.368;6.782;2023-04-24T00:17:15;1.00;;;0.90;;
9256;SDS011;4665;51.368;6.782;2023-04-24T00:19:44;1.20;;;1.20;;
9256;SDS011;4665;51.368;6.782;2023-04-24T00:22:10;3.03;;;1.30;;
9256;SDS011;4665;51.368;6.782;2023-04-24T00:24:35;1.30;;;1.30;;
9256;SDS011;4665;51.368;6.782;2023-04-24T00:27:01;1.20;;;1.20;;
9256;SDS011;4665;51.368;6.782;2023-04-24T00:29:27;1.30;;;1.30;;
9256;SDS011;4665;51.368;6.782;2023-04-24T00:31:53;1.30;;;1.30;;
9256;SDS011;4665;51.368;6.782;2023-04-24T00:34:19;1.73;;;1.13;;
9256;SDS011;4665;51.368;6.782;2023-04-24T00:36:44;1.43;;;1.33;;
9256;SDS011;4665;51.368;6.782;2023-04-24T00:39:10;1.57;;;1.47;;
9256;SDS011;4665;51.368;6.782;2023-04-24T00:41:35;1.50;;;1.40;;
9256;SDS011;4665;51.368;6.782;2023-04-24T00:44:01;1.43;;;1.40;;
9256;SDS011;4665;51.368;6.782;2023-04-24T00:46:26;1.37;;;1.37;;
9256;SDS011;4665;51.368;6.782;2023-04-24T00:48:52;1.73;;;1.63;;
9256;SDS011;4665;51.368;6.782;2023-04-24T00:51:18;2.70;;;1.73;;
9256;SDS011;4665;51.368;6.782;2023-04-24T00:53:43;1.77;;;1.63;;
9256;SDS011;4665;51.368;6.782;2023-04-24T00:56:09;2.47;;;2.20;;
9256;SDS011;4665;51.368;6.782;2023-04-24T00:58:35;2.37;;;2.27;;
9256;SDS011;4665;51.368;6.782;2023-04-24T01:01:00;3.47;;;3.17;;
9256;SDS011;4665;51.368;6.782;2023-04-24T01:03:28;3.20;;;3.00;;
9256;SDS011;4665;51.368;6.782;2023-04-24T01:05:56;3.33;;;3.10;;
9256;SDS011;4665;51.368;6.782;2023-04-24T01:08:23;4.70;;;3.23;;
9256;SDS011;4665;51.368;6.782;2023-04-24T01:10:49;3.47;;;3.17;;
9256;SDS011;4665;51.368;6.782;2023-04-24T01:13:17;4.07;;;3.43;;
9256;SDS011;4665;51.368;6.782;2023-04-24T01:15:43;4.30;;;3.43;;
9256;SDS011;4665;51.368;6.782;2023-04-24T01:18:08;3.93;;;3.57;;
9256;SDS011;4665;51.368;6.782;2023-04-24T01:20:34;3.30;;;3.10;;
9256;SDS011;4665;51.368;6.782;2023-04-24T01:23:01;3.60;;;3.30;;
9256;SDS011;4665;51.368;6.782;2023-04-24T01:25:27;3.40;;;3.00;;
9256;SDS011;4665;51.368;6.782;2023-04-24T01:27:53;3.10;;;2.90;;
9256;SDS011;4665;51.368;6.782;2023-04-24T01:30:18;4.87;;;3.23;;
9256;SDS011;4665;51.368;6.782;2023-04-24T01:32:44;3.80;;;3.40;;
9256;SDS011;4665;51.368;6.782;2023-04-24T01:35:10;4.07;;;3.50;;
9256;SDS011;4665;51.368;6.782;2023-04-24T01:37:36;5.37;;;3.70;;
9256;SDS011;4665;51.368;6.782;2023-04-24T01:40:05;5.43;;;3.30;;
9256;SDS011;4665;51.368;6.782;2023-04-24T01:42:31;3.73;;;3.47;;
9256;SDS011;4665;51.368;6.782;2023-04-24T01:44:57;4.10;;;3.53;;
9256;SDS011;4665;51.368;6.782;2023-04-24T01:47:22;3.40;;;3.13;;
9256;SDS011;4665;51.368;6.782;2023-04-24T01:49:49;3.03;;;2.83;;
9256;SDS011;4665;51.368;6.782;2023-04-24T01:52:15;4.23;;;3.83;;
9256;SDS011;4665;51.368;6.782;2023-04-24T01:54:42;4.23;;;3.80;;
9256;SDS011;4665;51.368;6.782;2023-04-24T01:57:08;4.20;;;3.90;;
9256;SDS011;4665;51.368;6.782;2023-04-24T01:59:33;5.80;;;4.20;;
9256;SDS011;4665;51.368;6.782;2023-04-24T02:02:01;4.63;;;4.23;;
9256;SDS011;4665;51.368;6.782;2023-04-24T02:04:27;5.20;;;4.30;;
9256;SDS011;4665;51.368;6.782;2023-04-24T02:06:53;5.13;;;4.57;;
9256;SDS011;4665;51.368;6.782;2023-04-24T02:09:18;5.17;;;4.73;;
9256;SDS011;4665;51.368;6.782;2023-04-24T02:11:43;4.53;;;4.13;;
9256;SDS011;4665;51.368;6.782;2023-04-24T02:14:09;5.87;;;5.27;;
9256;SDS011;4665;51.368;6.782;2023-04-24T02:16:34;6.87;;;5.00;;
9256;SDS011;4665;51.368;6.782;2023-04-24T02:19:01;7.93;;;5.50;;
9256;SDS011;4665;51.368;6.782;2023-04-24T02:21:27;8.77;;;5.67;;
9256;SDS011;4665;51.368;6.782;2023-04-24T02:23:53;6.63;;;5.93;;
9256;SDS011;4665;51.368;6.782;2023-04-24T02:26:18;8.27;;;5.87;;
9256;SDS011;4665;51.368;6.782;2023-04-24T02:28:44;10.27;;;6.50;;
9256;SDS011;4665;51.368;6.782;2023-04-24T02:31:09;7.73;;;5.83;;
9256;SDS011;4665;51.368;6.782;2023-04-24T02:33:34;7.83;;;6.70;;
9256;SDS011;4665;51.368;6.782;2023-04-24T02:36:00;8.90;;;6.60;;
9256;SDS011;4665;51.368;6.782;2023-04-24T02:38:26;8.33;;;6.93;;
9256;SDS011;4665;51.368;6.782;2023-04-24T02:40:52;9.30;;;6.73;;
9256;SDS011;4665;51.368;6.782;2023-04-24T02:43:17;9.23;;;7.40;;
9256;SDS011;4665;51.368;6.782;2023-04-24T02:45:43;10.90;;;7.00;;
9256;SDS011;4665;51.368;6.782;2023-04-24T02:48:08;8.10;;;7.13;;
9256;SDS011;4665;51.368;6.782;2023-04-24T02:50:34;7.70;;;6.33;;
9256;SDS011;4665;51.368;6.782;2023-04-24T02:52:59;9.33;;;7.97;;
9256;SDS011;4665;51.368;6.782;2023-04-24T02:55:25;10.93;;;7.67;;
9256;SDS011;4665;51.368;6.782;2023-04-24T02:57:50;9.17;;;7.87;;
9256;SDS011;4665;51.368;6.782;2023-04-24T03:00:16;10.77;;;7.80;;
9256;SDS011;4665;51.368;6.782;2023-04-24T03:02:41;8.50;;;7.67;;
9256;SDS011;4665;51.368;6.782;2023-04-24T03:05:07;10.83;;;7.53;;
9256;SDS011;4665;51.368;6.782;2023-04-24T03:07:32;8.90;;;8.00;;
9256;SDS011;4665;51.368;6.782;2023-04-24T03:09:58;9.90;;;7.93;;
9256;SDS011;4665;51.368;6.782;2023-04-24T03:12:24;10.23;;;7.97;;
9256;SDS011;4665;51.368;6.782;2023-04-24T03:14:50;7.93;;;7.03;;
9256;SDS011;4665;51.368;6.782;2023-04-24T03:17:15;11.73;;;8.37;;
9256;SDS011;4665;51.368;6.782;2023-04-24T03:19:40;13.80;;;8.07;;
9256;SDS011;4665;51.368;6.782;2023-04-24T03:22:06;9.30;;;8.40;;
9256;SDS011;4665;51.368;6.782;2023-04-24T03:24:31;11.33;;;9.10;;
9256;SDS011;4665;51.368;6.782;2023-04-24T03:26:57;10.70;;;8.40;;
9256;SDS011;4665;51.368;6.782;2023-04-24T03:29:22;10.93;;;8.60;;
9256;SDS011;4665;51.368;6.782;2023-04-24T03:31:48;9.23;;;8.30;;
9256;SDS011;4665;51.368;6.782;2023-04-24T03:34:13;12.93;;;9.07;;
9256;SDS011;4665;51.368;6.782;2023-04-24T03:36:39;11.47;;;8.77;;
9256;SDS011;4665;51.368;6.782;2023-04-24T03:39:04;10.00;;;8.73;;
9256;SDS011;4665;51.368;6.782;2023-04-24T03:41:30;10.60;;;8.00;;
9256;SDS011;4665;51.368;6.782;2023-04-24T03:43:55;12.20;;;8.47;;
9256;SDS011;4665;51.368;6.782;2023-04-24T03:46:21;10.83;;;8.17;;
9256;SDS011;4665;51.368;6.782;2023-04-24T03:48:46;10.17;;;8.43;;
9256;SDS011;4665;51.368;6.782;2023-04-24T03:51:12;15.83;;;8.33;;
9256;SDS011;4665;51.368;6.782;2023-04-24T03:53:37;8.73;;;7.73;;
9256;SDS011;4665;51.368;6.782;2023-04-24T03:56:03;10.57;;;7.93;;
9256;SDS011;4665;51.368;6.782;2023-04-24T03:58:28;11.47;;;8.53;;
9256;SDS011;4665;51.368;6.782;2023-04-24T04:00:53;13.37;;;8.63;;
9256;SDS011;4665;51.368;6.782;2023-04-24T04:03:19;8.90;;;7.60;;
9256;SDS011;4665;51.368;6.782;2023-04-24T04:05:44;8.40;;;7.43;;
9256;SDS011;4665;51.368;6.782;2023-04-24T04:08:10;9.37;;;8.07;;
9256;SDS011;4665;51.368;6.782;2023-04-24T04:10:35;12.50;;;7.37;;
9256;SDS011;4665;51.368;6.782;2023-04-24T04:13:00;8.60;;;7.17;;
9256;SDS011;4665;51.368;6.782;2023-04-24T04:15:26;11.07;;;7.43;;
9256;SDS011;4665;51.368;6.782;2023-04-24T04:17:51;9.43;;;7.13;;
9256;SDS011;4665;51.368;6.782;2023-04-24T04:20:16;8.33;;;7.50;;
9256;SDS011;4665;51.368;6.782;2023-04-24T04:22:42;8.00;;;7.30;;
9256;SDS011;4665;51.368;6.782;2023-04-24T04:25:07;13.60;;;7.27;;
9256;SDS011;4665;51.368;6.782;2023-04-24T04:27:33;8.00;;;7.23;;
9256;SDS011;4665;51.368;6.782;2023-04-24T04:29:59;10.10;;;7.90;;
9256;SDS011;4665;51.368;6.782;2023-04-24T04:32:32;10.80;;;7.53;;
9256;SDS011;4665;51.368;6.782;2023-04-24T04:34:58;11.17;;;8.00;;
9256;SDS011;4665;51.368;6.782;2023-04-24T04:37:28;8.43;;;7.07;;
9256;SDS011;4665;51.368;6.782;2023-04-24T04:40:00;10.57;;;6.77;;
9256;SDS011;4665;51.368;6.782;2023-04-24T04:42:26;8.90;;;7.57;;
9256;SDS011;4665;51.368;6.782;2023-04-24T04:44:52;9.07;;;7.10;;
9256;SDS011;4665;51.368;6.782;2023-04-24T04:47:18;9.40;;;7.10;;
9256;SDS011;4665;51.368;6.782;2023-04-24T04:49:46;11.53;;;7.80;;
9256;SDS011;4665;51.368;6.782;2023-04-24T04:52:13;9.67;;;7.10;;
9256;SDS011;4665;51.368;6.782;2023-04-24T04:54:38;7.50;;;6.73;;
9256;SDS011;4665;51.368;6.782;2023-04-24T04:57:03;10.03;;;6.63;;
9256;SDS011;4665;51.368;6.782;2023-04-24T04:59:29;8.97;;;6.93;;
9256;SDS011;4665;51.368;6.782;2023-04-24T05:01:54;7.90;;;6.97;;
9256;SDS011;4665;51.368;6.782;2023-04-24T05:04:19;9.10;;;6.87;;
9256;SDS011;4665;51.368;6.782;2023-04-24T05:06:45;7.37;;;6.63;;
9256;SDS011;4665;51.368;6.782;2023-04-24T05:09:12;7.30;;;6.53;;
9256;SDS011;4665;51.368;6.782;2023-04-24T05:11:37;6.97;;;6.27;;
9256;SDS011;4665;51.368;6.782;2023-04-24T05:14:02;7.43;;;6.73;;
9256;SDS011;4665;51.368;6.782;2023-04-24T05:16:28;7.43;;;6.67;;
9256;SDS011;4665;51.368;6.782;2023-04-24T05:18:54;8.50;;;7.30;;
9256;SDS011;4665;51.368;6.782;2023-04-24T05:21:19;12.00;;;7.83;;
9256;SDS011;4665;51.368;6.782;2023-04-24T05:23:45;10.23;;;7.20;;
9256;SDS011;4665;51.368;6.782;2023-04-24T05:26:10;9.43;;;7.50;;
9256;SDS011;4665;51.368;6.782;2023-04-24T05:28:36;8.53;;;7.47;;
9256;SDS011;4665;51.368;6.782;2023-04-24T05:31:02;9.00;;;7.43;;
9256;SDS011;4665;51.368;6.782;2023-04-24T05:33:28;8.30;;;7.33;;
9256;SDS011;4665;51.368;6.782;2023-04-24T05:35:53;8.40;;;7.50;;
9256;SDS011;4665;51.368;6.782;2023-04-24T05:38:19;8.13;;;7.00;;
9256;SDS011;4665;51.368;6.782;2023-04-24T05:40:47;8.23;;;7.43;;
9256;SDS011;4665;51.368;6.782;2023-04-24T05:43:13;8.43;;;7.13;;
9256;SDS011;4665;51.368;6.782;2023-04-24T05:45:38;10.00;;;6.90;;
9256;SDS011;4665;51.368;6.782;2023-04-24T05:48:04;7.37;;;6.53;;
9256;SDS011;4665;51.368;6.782;2023-04-24T05:50:30;7.70;;;6.90;;
9256;SDS011;4665;51.368;6.782;2023-04-24T05:52:55;7.57;;;6.87;;
9256;SDS011;4665;51.368;6.782;2023-04-24T05:55:23;6.87;;;6.27;;
9256;SDS011;4665;51.368;6.782;2023-04-24T05:57:49;8.37;;;6.87;;
9256;SDS011;4665;51.368;6.782;2023-04-24T06:00:15;7.10;;;6.40;;
9256;SDS011;4665;51.368;6.782;2023-04-24T06:02:40;7.30;;;6.57;;
9256;SDS011;4665;51.368;6.782;2023-04-24T06:05:06;7.30;;;6.60;;
9256;SDS011;4665;51.368;6.782;2023-04-24T06:07:33;7.33;;;6.63;;
9256;SDS011;4665;51.368;6.782;2023-04-24T06:09:58;6.93;;;6.33;;
9256;SDS011;4665;51.368;6.782;2023-04-24T06:12:24;7.40;;;6.70;;
9256;SDS011;4665;51.368;6.782;2023-04-24T06:14:50;7.60;;;6.80;;
9256;SDS011;4665;51.368;6.782;2023-04-24T06:17:16;7.47;;;6.70;;
9256;SDS011;4665;51.368;6.782;2023-04-24T06:19:41;7.33;;;6.20;;
9256;SDS011;4665;51.368;6.782;2023-04-24T06:22:07;6.53;;;5.93;;
9256;SDS011;4665;51.368;6.782;2023-04-24T06:24:33;7.97;;;6.80;;
9256;SDS011;4665;51.368;6.782;2023-04-24T06:26:59;9.53;;;6.10;;
9256;SDS011;4665;51.368;6.782;2023-04-24T06:29:26;6.87;;;6.17;;
9256;SDS011;4665;51.368;6.782;2023-04-24T06:31:52;7.40;;;6.67;;
9256;SDS011;4665;51.368;6.782;2023-04-24T06:34:17;6.57;;;5.80;;
9256;SDS011;4665;51.368;6.782;2023-04-24T06:36:42;6.30;;;5.70;;
9256;SDS011;4665;51.368;6.782;2023-04-24T06:39:08;6.03;;;5.50;;
9256;SDS011;4665;51.368;6.782;2023-04-24T06:41:34;6.17;;;5.57;;
9256;SDS011;4665;51.368;6.782;2023-04-24T06:43:59;6.47;;;5.53;;
9256;SDS011;4665;51.368;6.782;2023-04-24T06:46:25;6.73;;;5.03;;
9256;SDS011;4665;51.368;6.782;2023-04-24T06:48:52;6.57;;;4.70;;
9256;SDS011;4665;51.368;6.782;2023-04-24T06:51:25;5.13;;;4.63;;
9256;SDS011;4665;51.368;6.782;2023-04-24T06:53:54;8.47;;;5.03;;
9256;SDS011;4665;51.368;6.782;2023-04-24T06:56:20;5.60;;;4.73;;
9256;SDS011;4665;51.368;6.782;2023-04-24T06:58:46;6.20;;;4.80;;
9256;SDS011;4665;51.368;6.782;2023-04-24T07:01:11;6.13;;;4.73;;
9256;SDS011;4665;51.368;6.782;2023-04-24T07:03:37;6.33;;;4.20;;
9256;SDS011;4665;51.368;6.782;2023-04-24T07:06:02;4.30;;;4.00;;
9256;SDS011;4665;51.368;6.782;2023-04-24T07:08:28;4.33;;;3.93;;
9256;SDS011;4665;51.368;6.782;2023-04-24T07:10:55;4.33;;;4.03;;
9256;SDS011;4665;51.368;6.782;2023-04-24T07:13:20;4.40;;;4.00;;
9256;SDS011;4665;51.368;6.782;2023-04-24T07:15:46;4.90;;;3.97;;
9256;SDS011;4665;51.368;6.782;2023-04-24T07:18:13;3.47;;;3.17;;
9256;SDS011;4665;51.368;6.782;2023-04-24T07:20:39;5.00;;;2.90;;
9256;SDS011;4665;51.368;6.782;2023-04-24T07:23:04;3.10;;;2.77;;
9256;SDS011;4665;51.368;6.782;2023-04-24T07:25:30;2.70;;;2.50;;
9256;SDS011;4665;51.368;6.782;2023-04-24T07:27:56;2.33;;;2.20;;
9256;SDS011;4665;51.368;6.782;2023-04-24T07:30:22;2.10;;;2.00;;
9256;SDS011;4665;51.368;6.782;2023-04-24T07:32:47;3.50;;;1.90;;
9256;SDS011;4665;51.368;6.782;2023-04-24T07:35:12;1.90;;;1.30;;
9256;SDS011;4665;51.368;6.782;2023-04-24T07:37:38;0.63;;;0.63;;
9256;SDS011;4665;51.368;6.782;2023-04-24T07:40:03;1.00;;;1.00;;
9256;SDS011;4665;51.368;6.782;2023-04-24T07:42:29;0.47;;;0.47;;
9256;SDS011;4665;51.368;6.782;2023-04-24T07:44:55;0.87;;;0.80;;
9256;SDS011;4665;51.368;6.782;2023-04-24T07:47:21;1.63;;;0.60;;
9256;SDS011;4665;51.368;6.782;2023-04-24T07:49:46;0.60;;;0.60;;
9256;SDS011;4665;51.368;6.782;2023-04-24T07:52:12;0.60;;;0.60;;
9256;SDS011;4665;51.368;6.782;2023-04-24T07:54:37;1.27;;;0.80;;
9256;SDS011;4665;51.368;6.782;2023-04-24T07:57:03;0.63;;;0.60;;
9256;SDS011;4665;51.368;6.782;2023-04-24T07:59:28;1.80;;;1.23;;
9256;SDS011;4665;51.368;6.782;2023-04-24T08:01:54;1.13;;;1.03;;
9256;SDS011;4665;51.368;6.782;2023-04-24T08:04:19;1.03;;;0.90;;
9256;SDS011;4665;51.368;6.782;2023-04-24T08:06:46;1.30;;;1.20;;
9256;SDS011;4665;51.368;6.782;2023-04-24T08:09:12;3.13;;;1.20;;
9256;SDS011;4665;51.368;6.782;2023-04-24T08:11:38;1.20;;;1.20;;
9256;SDS011;4665;51.368;6.782;2023-04-24T08:14:03;1.40;;;1.27;;
9256;SDS011;4665;51.368;6.782;2023-04-24T08:16:29;1.20;;;1.20;;
9256;SDS011;4665;51.368;6.782;2023-04-24T08:18:54;2.27;;;1.50;;
9256;SDS011;4665;51.368;6.782;2023-04-24T08:21:19;1.20;;;1.20;;
9256;SDS011;4665;51.368;6.782;2023-04-24T08:23:45;2.37;;;1.33;;
9256;SDS011;4665;51.368;6.782;2023-04-24T08:26:11;1.93;;;1.80;;
9256;SDS011;4665;51.368;6.782;2023-04-24T08:28:37;1.90;;;1.80;;
9256;SDS011;4665;51.368;6.782;2023-04-24T08:31:03;1.60;;;1.50;;
9256;SDS011;4665;51.368;6.782;2023-04-24T08:33:29;1.20;;;1.10;;
9256;SDS011;4665;51.368;6.782;2023-04-24T08:36:03;2.47;;;1.80;;
9256;SDS011;4665;51.368;6.782;2023-04-24T08:38:29;1.97;;;1.50;;
9256;SDS011;4665;51.368;6.782;2023-04-24T08:40:56;1.20;;;1.10;;
9256;SDS011;4665;51.368;6.782;2023-04-24T08:43:23;0.97;;;0.97;;
9256;SDS011;4665;51.368;6.782;2023-04-24T08:45:49;1.30;;;1.20;;
9256;SDS011;4665;51.368;6.782;2023-04-24T08:48:15;1.53;;;1.43;;
9256;SDS011;4665;51.368;6.782;2023-04-24T08:50:42;1.20;;;1.10;;
9256;SDS011;4665;51.368;6.782;2023-04-24T08:53:09;1.50;;;1.50;;
9256;SDS011;4665;51.368;6.782;2023-04-24T08:55:35;2.60;;;1.70;;
9256;SDS011;4665;51.368;6.782;2023-04-24T08:58:02;0.87;;;0.87;;
9256;SDS011;4665;51.368;6.782;2023-04-24T09:00:28;1.50;;;1.40;;
9256;SDS011;4665;51.368;6.782;2023-04-24T09:02:54;2.53;;;1.70;;
9256;SDS011;4665;51.368;6.782;2023-04-24T09:05:20;2.87;;;2.00;;
9256;SDS011;4665;51.368;6.782;2023-04-24T09:07:53;7.83;;;6.80;;
9256;SDS011;4665;51.368;6.782;2023-04-24T09:10:20;14.23;;;11.73;;
9256;SDS011;4665;51.368;6.782;2023-04-24T09:12:47;14.70;;;11.43;;
9256;SDS011;4665;51.368;6.782;2023-04-24T09:15:12;11.57;;;8.60;;
9256;SDS011;4665;51.368;6.782;2023-04-24T09:17:38;7.77;;;6.07;;
9256;SDS011;4665;51.368;6.782;2023-04-24T09:20:04;6.60;;;5.90;;
9256;SDS011;4665;51.368;6.782;2023-04-24T09:22:30;8.03;;;6.30;;
9256;SDS011;4665;51.368;6.782;2023-04-24T09:25:02;8.27;;;6.53;;
9256;SDS011;4665;51.368;6.782;2023-04-24T09:27:30;6.67;;;5.97;;
9256;SDS011;4665;51.368;6.782;2023-04-24T09:29:56;7.70;;;7.00;;
9256;SDS011;4665;51.368;6.782;2023-04-24T09:32:22;7.13;;;6.20;;
9256;SDS011;4665;51.368;6.782;2023-04-24T09:35:04;6.43;;;5.93;;
9256;SDS011;4665;51.368;6.782;2023-04-24T09:37:43;7.87;;;6.03;;
9256;SDS011;4665;51.368;6.782;2023-04-24T09:40:11;8.67;;;7.60;;
9256;SDS011;4665;51.368;6.782;2023-04-24T09:42:37;9.77;;;6.70;;
9256;SDS011;4665;51.368;6.782;2023-04-24T09:45:03;7.67;;;5.67;;
9256;SDS011;4665;51.368;6.782;2023-04-24T09:47:37;8.60;;;6.10;;
9256;SDS011;4665;51.368;6.782;2023-04-24T09:50:13;8.73;;;7.17;;
9256;SDS011;4665;51.368;6.782;2023-04-24T09:53:02;10.10;;;7.87;;
9256;SDS011;4665;51.368;6.782;2023-04-24T09:55:27;14.00;;;9.90;;
9256;SDS011;4665;51.368;6.782;2023-04-24T09:57:59;12.73;;;10.23;;
9256;SDS011;4665;51.368;6.782;2023-04-24T10:00:27;13.17;;;9.93;;
9256;SDS011;4665;51.368;6.782;2023-04-24T10:03:02;14.40;;;10.93;;
9256;SDS011;4665;51.368;6.782;2023-04-24T10:05:29;18.43;;;10.83;;
9256;SDS011;4665;51.368;6.782;2023-04-24T10:08:06;16.03;;;9.30;;
9256;SDS011;4665;51.368;6.782;2023-04-24T10:10:40;11.07;;;7.50;;
9256;SDS011;4665;51.368;6.782;2023-04-24T10:13:07;14.83;;;10.00;;
9256;SDS011;4665;51.368;6.782;2023-04-24T10:15:34;18.10;;;12.50;;
9256;SDS011;4665;51.368;6.782;2023-04-24T10:18:00;15.13;;;10.20;;
9256;SDS011;4665;51.368;6.782;2023-04-24T10:20:26;13.47;;;9.10;;
9256;SDS011;4665;51.368;6.782;2023-04-24T10:22:56;14.30;;;9.70;;
9256;SDS011;4665;51.368;6.782;2023-04-24T10:25:23;14.57;;;9.00;;
9256;SDS011;4665;51.368;6.782;2023-04-24T10:27:51;16.17;;;8.47;;
9256;SDS011;4665;51.368;6.782;2023-04-24T10:30:18;12.83;;;8.37;;
9256;SDS011;4665;51.368;6.782;2023-04-24T10:32:44;15.40;;;10.63;;
9256;SDS011;4665;51.368;6.782;2023-04-24T10:35:11;19.57;;;12.63;;
9256;SDS011;4665;51.368;6.782;2023-04-24T10:37:39;22.23;;;11.93;;
9256;SDS011;4665;51.368;6.782;2023-04-24T10:40:09;17.70;;;11.90;;
9256;SDS011;4665;51.368;6.782;2023-04-24T10:42:39;19.00;;;10.17;;
9256;SDS011;4665;51.368;6.782;2023-04-24T10:45:15;12.17;;;7.50;;
9256;SDS011;4665;51.368;6.782;2023-04-24T10:47:42;13.30;;;8.07;;
9256;SDS011;4665;51.368;6.782;2023-04-24T10:50:12;19.40;;;10.53;;
9256;SDS011;4665;51.368;6.782;2023-04-24T10:52:44;17.57;;;10.23;;
9256;SDS011;4665;51.368;6.782;2023-04-24T10:55:10;22.40;;;9.50;;
9256;SDS011;4665;51.368;6.782;2023-04-24T10:57:38;17.07;;;10.73;;
9256;SDS011;4665;51.368;6.782;2023-04-24T11:00:19;21.33;;;13.27;;
9256;SDS011;4665;51.368;6.782;2023-04-24T11:02:47;19.10;;;7.97;;
9256;SDS011;4665;51.368;6.782;2023-04-24T11:05:18;11.30;;;6.40;;
9256;SDS011;4665;51.368;6.782;2023-04-24T11:10:38;10.10;;;6.43;;
9256;SDS011;4665;51.368;6.782;2023-04-24T11:13:21;8.73;;;6.33;;
9256;SDS011;4665;51.368;6.782;2023-04-24T11:24:29;12.33;;;5.50;;
9256;SDS011;4665;51.368;6.782;2023-04-24T11:26:59;13.27;;;5.90;;
9256;SDS011;4665;51.368;6.782;2023-04-24T11:35:38;8.23;;;5.40;;
9256;SDS011;4665;51.368;6.782;2023-04-24T11:37:50;9.00;;;4.40;;
9256;SDS011;4665;51.368;6.782;2023-04-24T11:40:18;8.80;;;4.67;;
9256;SDS011;4665;51.368;6.782;2023-04-24T11:42:46;7.13;;;5.07;;
9256;SDS011;4665;51.368;6.782;2023-04-24T11:45:13;11.90;;;6.00;;
9256;SDS011;4665;51.368;6.782;2023-04-24T11:47:39;14.20;;;7.40;;
9256;SDS011;4665;51.368;6.782;2023-04-24T11:50:06;15.47;;;9.50;;
9256;SDS011;4665;51.368;6.782;2023-04-24T11:52:36;20.53;;;9.67;;
9256;SDS011;4665;51.368;6.782;2023-04-24T11:55:03;15.03;;;9.50;;
9256;SDS011;4665;51.368;6.782;2023-04-24T11:57:29;7.90;;;4.70;;
9256;SDS011;4665;51.368;6.782;2023-04-24T11:59:59;7.17;;;3.90;;
9256;SDS011;4665;51.368;6.782;2023-04-24T12:02:26;9.73;;;4.70;;
9256;SDS011;4665;51.368;6.782;2023-04-24T12:04:52;8.13;;;3.67;;
9256;SDS011;4665;51.368;6.782;2023-04-24T12:07:18;5.40;;;3.03;;
9256;SDS011;4665;51.368;6.782;2023-04-24T12:09:50;5.27;;;3.00;;
9256;SDS011;4665;51.368;6.782;2023-04-24T12:12:20;6.20;;;3.33;;
9256;SDS011;4665;51.368;6.782;2023-04-24T12:14:59;8.43;;;3.37;;
9256;SDS011;4665;51.368;6.782;2023-04-24T12:17:31;5.27;;;3.33;;
9256;SDS011;4665;51.368;6.782;2023-04-24T12:19:59;5.27;;;3.10;;
9256;SDS011;4665;51.368;6.782;2023-04-24T12:22:25;10.87;;;4.57;;
9256;SDS011;4665;51.368;6.782;2023-04-24T12:25:03;6.97;;;4.53;;
9256;SDS011;4665;51.368;6.782;2023-04-24T12:27:33;8.93;;;4.57;;
9256;SDS011;4665;51.368;6.782;2023-04-24T12:30:00;4.33;;;2.87;;
9256;SDS011;4665;51.368;6.782;2023-04-24T12:32:27;7.60;;;3.53;;
9256;SDS011;4665;51.368;6.782;2023-04-24T12:34:53;7.63;;;3.70;;
9256;SDS011;4665;51.368;6.782;2023-04-24T12:37:20;11.60;;;4.47;;
9256;SDS011;4665;51.368;6.782;2023-04-24T12:39:58;11.07;;;5.83;;
9256;SDS011;4665;51.368;6.782;2023-04-24T12:42:25;13.57;;;6.50;;
9256;SDS011;4665;51.368;6.782;2023-04-24T12:44:55;9.70;;;5.43;;
9256;SDS011;4665;51.368;6.782;2023-04-24T12:47:22;8.47;;;4.43;;
9256;SDS011;4665;51.368;6.782;2023-04-24T12:49:48;9.30;;;4.40;;
9256;SDS011;4665;51.368;6.782;2023-04-24T12:52:15;5.33;;;3.50;;
9256;SDS011;4665;51.368;6.782;2023-04-24T12:54:42;6.43;;;3.70;;
9256;SDS011;4665;51.368;6.782;2023-04-24T12:57:07;6.77;;;3.43;;
9256;SDS011;4665;51.368;6.782;2023-04-24T12:59:33;8.43;;;2.90;;
9256;SDS011;4665;51.368;6.782;2023-04-24T13:01:58;3.27;;;2.47;;
9256;SDS011;4665;51.368;6.782;2023-04-24T13:04:23;9.70;;;3.90;;
9256;SDS011;4665;51.368;6.782;2023-04-24T13:06:49;11.77;;;5.23;;
9256;SDS011;4665;51.368;6.782;2023-04-24T13:09:15;8.77;;;4.47;;
9256;SDS011;4665;51.368;6.782;2023-04-24T13:11:40;7.87;;;2.70;;
9256;SDS011;4665;51.368;6.782;2023-04-24T13:14:05;3.03;;;2.50;;
9256;SDS011;4665;51.368;6.782;2023-04-24T13:16:31;6.73;;;3.30;;
9256;SDS011;4665;51.368;6.782;2023-04-24T13:18:56;5.90;;;3.60;;
9256;SDS011;4665;51.368;6.782;2023-04-24T13:21:21;6.33;;;3.63;;
9256;SDS011;4665;51.368;6.782;2023-04-24T13:23:47;6.13;;;3.13;;
9256;SDS011;4665;51.368;6.782;2023-04-24T13:26:12;3.37;;;2.20;;
9256;SDS011;4665;51.368;6.782;2023-04-24T13:28:37;7.97;;;3.20;;
9256;SDS011;4665;51.368;6.782;2023-04-24T13:31:03;8.40;;;3.83;;
9256;SDS011;4665;51.368;6.782;2023-04-24T13:33:29;10.47;;;4.70;;
9256;SDS011;4665;51.368;6.782;2023-04-24T13:35:54;7.17;;;3.20;;
9256;SDS011;4665;51.368;6.782;2023-04-24T13:38:19;7.50;;;3.90;;
9256;SDS011;4665;51.368;6.782;2023-04-24T13:40:46;3.30;;;2.20;;
9256;SDS011;4665;51.368;6.782;2023-04-24T13:43:11;4.77;;;2.10;;
9256;SDS011;4665;51.368;6.782;2023-04-24T13:45:37;3.23;;;1.93;;
9256;SDS011;4665;51.368;6.782;2023-04-24T13:48:02;2.40;;;1.80;;
9256;SDS011;4665;51.368;6.782;2023-04-24T13:50:28;7.67;;;3.47;;
9256;SDS011;4665;51.368;6.782;2023-04-24T13:52:54;4.47;;;2.87;;
9256;SDS011;4665;51.368;6.782;2023-04-24T13:55:19;4.23;;;3.00;;
9256;SDS011;4665;51.368;6.782;2023-04-24T13:57:45;2.13;;;2.03;;
9256;SDS011;4665;51.368;6.782;2023-04-24T14:00:10;4.83;;;2.40;;
9256;SDS011;4665;51.368;6.782;2023-04-24T14:02:36;2.43;;;1.70;;
9256;SDS011;4665;51.368;6.782;2023-04-24T14:05:01;2.20;;;1.50;;
9256;SDS011;4665;51.368;6.782;2023-04-24T14:07:28;1.70;;;1.20;;
9256;SDS011;4665;51.368;6.782;2023-04-24T14:09:53;2.40;;;1.33;;
9256;SDS011;4665;51.368;6.782;2023-04-24T14:12:19;5.03;;;1.50;;
9256;SDS011;4665;51.368;6.782;2023-04-24T14:14:46;1.40;;;1.30;;
9256;SDS011;4665;51.368;6.782;2023-04-24T14:17:13;1.77;;;1.67;;
9256;SDS011;4665;51.368;6.782;2023-04-24T14:19:39;1.80;;;1.30;;
9256;SDS011;4665;51.368;6.782;2023-04-24T14:22:04;1.30;;;1.20;;
9256;SDS011;4665;51.368;6.782;2023-04-24T14:24:29;1.73;;;1.33;;
9256;SDS011;4665;51.368;6.782;2023-04-24T14:26:55;2.23;;;1.10;;
9256;SDS011;4665;51.368;6.782;2023-04-24T14:29:21;2.17;;;1.10;;
9256;SDS011;4665;51.368;6.782;2023-04-24T14:31:46;2.20;;;1.00;;
9256;SDS011;4665;51.368;6.782;2023-04-24T14:34:13;0.90;;;0.90;;
9256;SDS011;4665;51.368;6.782;2023-04-24T14:36:38;1.53;;;1.37;;
9256;SDS011;4665;51.368;6.782;2023-04-24T14:39:04;1.40;;;1.30;;
9256;SDS011;4665;51.368;6.782;2023-04-24T14:41:31;4.17;;;2.13;;
9256;SDS011;4665;51.368;6.782;2023-04-24T14:44:00;5.50;;;3.20;;
9256;SDS011;4665;51.368;6.782;2023-04-24T14:46:29;6.40;;;3.67;;
9256;SDS011;4665;51.368;6.782;2023-04-24T14:48:57;3.37;;;3.07;;
9256;SDS011;4665;51.368;6.782;2023-04-24T14:51:23;4.50;;;3.03;;
9256;SDS011;4665;51.368;6.782;2023-04-24T14:53:48;5.33;;;2.77;;
9256;SDS011;4665;51.368;6.782;2023-04-24T14:56:14;3.30;;;2.30;;
9256;SDS011;4665;51.368;6.782;2023-04-24T14:58:40;3.77;;;2.70;;
9256;SDS011;4665;51.368;6.782;2023-04-24T15:01:05;10.90;;;4.50;;
9256;SDS011;4665;51.368;6.782;2023-04-24T15:03:31;5.47;;;3.50;;
9256;SDS011;4665;51.368;6.782;2023-04-24T15:05:58;4.23;;;2.53;;
9256;SDS011;4665;51.368;6.782;2023-04-24T15:08:24;2.80;;;2.10;;
9256;SDS011;4665;51.368;6.782;2023-04-24T15:10:49;3.83;;;2.30;;
9256;SDS011;4665;51.368;6.782;2023-04-24T15:13:15;3.47;;;2.57;;
9256;SDS011;4665;51.368;6.782;2023-04-24T15:15:40;3.80;;;1.80;;
9256;SDS011;4665;51.368;6.782;2023-04-24T15:18:07;5.53;;;1.70;;
9256;SDS011;4665;51.368;6.782;2023-04-24T15:20:35;2.43;;;1.30;;
9256;SDS011;4665;51.368;6.782;2023-04-24T15:23:01;1.47;;;1.33;;
9256;SDS011;4665;51.368;6.782;2023-04-24T15:25:27;3.70;;;1.40;;